Time;durP1;ratioP1;P1;durP2;ratioP2;P2;SDS_P1;SDS_P2;PMS_P1;PMS_P2;Temp;Humidity;BMP_temperature;BMP_pressure;BME280_temperature;BME280_humidity;BME280_pressure;Samples;Min_cycle;Max_cycle;Signal;HPM_P1;HPM_P2
2023/05/13 00:00:20;;;;;;;1.30;1.20;;;;;;;;;;5141270;27;20534;-64
2023/05/13 00:02:47;;;;;;;1.30;1.20;;;;;;;;;;5140644;27;20202;-64
2023/05/13 00:05:15;;;;;;;1.10;1.10;;;;;;;;;;5140966;27;20267;-64
2023/05/13 00:07:44;;;;;;;1.40;1.30;;;;;;;;;;5140588;27;20210;-64
2023/05/13 00:10:12;;;;;;;1.25;1.15;;;;;;;;;;5140490;27;20267;-64
2023/05/13 00:12:39;;;;;;;1.23;1.13;;;;;;;;;;5140657;27;20226;-64
2023/05/13 00:15:07;;;;;;;1.10;1.10;;;;;;;;;;5140872;27;20286;-64
2023/05/13 00:17:35;;;;;;;1.15;1.15;;;;;;;;;;5141158;27;20203;-64
2023/05/13 00:20:02;;;;;;;1.13;1.13;;;;;;;;;;5140967;27;20266;-64
2023/05/13 00:22:30;;;;;;;1.42;1.33;;;;;;;;;;5140555;27;20202;-64
2023/05/13 00:24:59;;;;;;;1.50;1.40;;;;;;;;;;5140478;27;20231;-65
2023/05/13 00:27:26;;;;;;;1.85;1.38;;;;;;;;;;5140994;27;20267;-64
2023/05/13 00:29:54;;;;;;;1.40;1.30;;;;;;;;;;5140692;27;20233;-64
2023/05/13 00:32:22;;;;;;;1.30;1.20;;;;;;;;;;5140706;27;20237;-65
2023/05/13 00:34:49;;;;;;;1.10;1.10;;;;;;;;;;5140793;27;20228;-65
2023/05/13 00:37:17;;;;;;;1.35;1.25;;;;;;;;;;5140914;27;20536;-64
2023/05/13 00:39:44;;;;;;;1.15;1.15;;;;;;;;;;5140609;27;20210;-64
2023/05/13 00:42:14;;;;;;;1.35;1.25;;;;;;;;;;5140116;27;20198;-64
2023/05/13 00:44:41;;;;;;;1.40;1.30;;;;;;;;;;5139929;27;20216;-65
2023/05/13 00:47:11;;;;;;;1.38;1.27;;;;;;;;;;5140701;27;20202;-64
2023/05/13 00:49:39;;;;;;;1.30;1.20;;;;;;;;;;5140729;27;20242;-64
2023/05/13 00:52:06;;;;;;;1.40;1.30;;;;;;;;;;5140070;27;20253;-64
2023/05/13 00:54:34;;;;;;;1.20;1.20;;;;;;;;;;5140237;27;20255;-63
2023/05/13 00:57:02;;;;;;;1.50;1.40;;;;;;;;;;5139440;27;20206;-64
2023/05/13 00:59:31;;;;;;;1.15;1.15;;;;;;;;;;5139952;27;20247;-64
2023/05/13 01:02:01;;;;;;;1.20;1.17;;;;;;;;;;5139255;27;20205;-64
2023/05/13 01:04:32;;;;;;;1.63;1.38;;;;;;;;;;5140493;27;20461;-64
2023/05/13 01:07:05;;;;;;;1.55;1.20;;;;;;;;;;5139564;27;20202;-64
2023/05/13 01:09:37;;;;;;;1.10;1.10;;;;;;;;;;5139870;27;20209;-65
2023/05/13 01:12:08;;;;;;;1.20;1.20;;;;;;;;;;5138996;27;20226;-64
2023/05/13 01:14:40;;;;;;;1.35;1.25;;;;;;;;;;5139403;27;20267;-65
2023/05/13 01:17:10;;;;;;;1.33;1.23;;;;;;;;;;5139326;27;20297;-64
2023/05/13 01:19:41;;;;;;;1.20;1.10;;;;;;;;;;5139760;27;20206;-64
2023/05/13 01:22:10;;;;;;;1.10;1.10;;;;;;;;;;5137086;27;20285;-64
2023/05/13 01:24:38;;;;;;;1.17;1.10;;;;;;;;;;5140025;27;20298;-64
2023/05/13 01:27:06;;;;;;;1.27;1.20;;;;;;;;;;5139461;27;20226;-63
2023/05/13 01:29:34;;;;;;;1.30;1.20;;;;;;;;;;5139567;27;20663;-65
2023/05/13 01:32:01;;;;;;;1.30;1.20;;;;;;;;;;5139347;27;20652;-64
2023/05/13 01:34:29;;;;;;;1.13;1.13;;;;;;;;;;5139848;27;20202;-64
2023/05/13 01:36:58;;;;;;;1.35;1.20;;;;;;;;;;5139290;27;20202;-64
2023/05/13 01:39:27;;;;;;;1.40;1.30;;;;;;;;;;5139070;27;20206;-65
2023/05/13 01:41:54;;;;;;;1.50;1.40;;;;;;;;;;5139136;27;20224;-64
2023/05/13 01:44:22;;;;;;;1.02;1.02;;;;;;;;;;5139547;27;20202;-64
2023/05/13 01:46:51;;;;;;;1.35;1.20;;;;;;;;;;5139353;27;20263;-64
2023/05/13 01:49:19;;;;;;;1.23;1.20;;;;;;;;;;5138964;27;20202;-64
2023/05/13 01:51:46;;;;;;;1.23;1.20;;;;;;;;;;5139885;27;20555;-64
2023/05/13 01:54:14;;;;;;;1.20;1.20;;;;;;;;;;5139603;27;20202;-64
2023/05/13 01:56:43;;;;;;;1.20;1.20;;;;;;;;;;5139080;27;20619;-65
2023/05/13 01:59:11;;;;;;;1.25;1.20;;;;;;;;;;5139059;27;20481;-65
2023/05/13 02:01:39;;;;;;;1.15;1.15;;;;;;;;;;5138803;27;20281;-64
2023/05/13 02:04:06;;;;;;;1.35;1.25;;;;;;;;;;5139199;27;20213;-64
2023/05/13 02:06:34;;;;;;;1.00;1.00;;;;;;;;;;5139573;27;20545;-64
2023/05/13 02:09:02;;;;;;;1.50;1.20;;;;;;;;;;5139535;27;20255;-64
2023/05/13 02:11:30;;;;;;;1.20;1.10;;;;;;;;;;5138451;27;20213;-63
2023/05/13 02:13:59;;;;;;;1.17;1.10;;;;;;;;;;5138263;27;20535;-64
2023/05/13 02:16:26;;;;;;;1.50;1.40;;;;;;;;;;5138859;27;20213;-64
2023/05/13 02:18:54;;;;;;;1.30;1.17;;;;;;;;;;5139371;27;20202;-69
2023/05/13 02:21:22;;;;;;;1.15;1.10;;;;;;;;;;5139219;27;20491;-64
2023/05/13 02:23:49;;;;;;;1.30;1.20;;;;;;;;;;5139019;27;20198;-64
2023/05/13 02:26:17;;;;;;;1.42;1.33;;;;;;;;;;5138422;27;20234;-64
2023/05/13 02:28:44;;;;;;;1.42;1.30;;;;;;;;;;5138654;27;20203;-64
2023/05/13 02:31:13;;;;;;;1.10;1.10;;;;;;;;;;5139239;27;20353;-64
2023/05/13 02:33:40;;;;;;;1.45;1.30;;;;;;;;;;5143891;27;20303;-64
2023/05/13 02:36:08;;;;;;;1.30;1.20;;;;;;;;;;5145679;27;20210;-64
2023/05/13 02:38:36;;;;;;;1.30;1.20;;;;;;;;;;5146298;27;20538;-64
2023/05/13 02:41:03;;;;;;;1.05;1.05;;;;;;;;;;5145329;27;20574;-64
2023/05/13 02:43:31;;;;;;;1.20;1.10;;;;;;;;;;5145895;27;20589;-64
2023/05/13 02:45:58;;;;;;;1.13;1.13;;;;;;;;;;5145728;27;20213;-64
2023/05/13 02:48:28;;;;;;;1.15;1.15;;;;;;;;;;5145392;27;20203;-63
2023/05/13 02:50:55;;;;;;;1.40;1.30;;;;;;;;;;5145414;27;20289;-64
2023/05/13 02:53:23;;;;;;;1.05;1.05;;;;;;;;;;5145045;27;20226;-64
2023/05/13 02:55:50;;;;;;;1.10;1.10;;;;;;;;;;5145256;27;20201;-65
2023/05/13 02:58:18;;;;;;;1.25;1.15;;;;;;;;;;5145016;27;20252;-65
2023/05/13 03:00:45;;;;;;;1.00;1.00;;;;;;;;;;5144710;27;20209;-64
2023/05/13 03:03:13;;;;;;;1.30;1.20;;;;;;;;;;5145692;27;20190;-64
2023/05/13 03:05:42;;;;;;;1.27;1.20;;;;;;;;;;5145264;27;20210;-65
2023/05/13 03:08:10;;;;;;;1.02;1.02;;;;;;;;;;5145167;27;20206;-65
2023/05/13 03:10:37;;;;;;;1.00;1.00;;;;;;;;;;5145042;27;20263;-64
2023/05/13 03:13:05;;;;;;;1.35;1.25;;;;;;;;;;5144954;27;20245;-65
2023/05/13 03:15:32;;;;;;;1.10;1.00;;;;;;;;;;5145293;27;20206;-64
2023/05/13 03:18:00;;;;;;;1.20;1.20;;;;;;;;;;5145779;27;20639;-64
2023/05/13 03:20:27;;;;;;;1.00;1.00;;;;;;;;;;5144962;27;20220;-64
2023/05/13 03:22:56;;;;;;;1.00;1.00;;;;;;;;;;5144410;27;20198;-64
2023/05/13 03:25:24;;;;;;;1.10;1.10;;;;;;;;;;5145172;27;20226;-64
2023/05/13 03:27:51;;;;;;;1.30;1.20;;;;;;;;;;5145040;27;20267;-65
2023/05/13 03:30:19;;;;;;;1.30;1.20;;;;;;;;;;5144876;27;20202;-64
2023/05/13 03:32:47;;;;;;;0.93;0.93;;;;;;;;;;5145274;27;20248;-64
2023/05/13 03:35:14;;;;;;;1.00;1.00;;;;;;;;;;5144954;27;20210;-64
2023/05/13 03:37:42;;;;;;;1.17;1.10;;;;;;;;;;5144558;27;20198;-65
2023/05/13 03:40:11;;;;;;;1.20;1.20;;;;;;;;;;5144908;27;20604;-64
2023/05/13 03:42:39;;;;;;;1.00;1.00;;;;;;;;;;5144865;27;20197;-64
2023/05/13 03:45:07;;;;;;;0.90;0.90;;;;;;;;;;5141837;27;20485;-64
2023/05/13 03:47:37;;;;;;;1.23;1.10;;;;;;;;;;5141980;27;20221;-64
2023/05/13 03:50:05;;;;;;;1.10;1.10;;;;;;;;;;5141415;27;20492;-64
2023/05/13 03:52:33;;;;;;;1.42;1.33;;;;;;;;;;5141623;27;20255;-64
2023/05/13 03:55:00;;;;;;;1.10;1.10;;;;;;;;;;5142029;27;20286;-64
2023/05/13 03:57:29;;;;;;;1.00;1.00;;;;;;;;;;5141212;27;20210;-64
2023/05/13 03:59:57;;;;;;;1.10;1.00;;;;;;;;;;5141047;27;20210;-64
2023/05/13 04:02:24;;;;;;;1.00;1.00;;;;;;;;;;5141036;27;20206;-64
2023/05/13 04:04:51;;;;;;;1.45;1.15;;;;;;;;;;5141137;27;20203;-64
2023/05/13 04:07:18;;;;;;;1.20;1.10;;;;;;;;;;5140560;27;20238;-65
2023/05/13 04:09:46;;;;;;;0.98;0.98;;;;;;;;;;5140464;27;20234;-64
2023/05/13 04:12:14;;;;;;;1.25;1.10;;;;;;;;;;5140286;27;20202;-64
2023/05/13 04:14:43;;;;;;;1.02;1.02;;;;;;;;;;5140361;27;20314;-64
2023/05/13 04:17:10;;;;;;;1.33;1.00;;;;;;;;;;5140458;27;20210;-64
2023/05/13 04:19:37;;;;;;;0.90;0.90;;;;;;;;;;5140943;27;20225;-64
2023/05/13 04:22:05;;;;;;;1.20;1.10;;;;;;;;;;5140865;27;20585;-64
2023/05/13 04:24:32;;;;;;;1.10;1.10;;;;;;;;;;5140215;27;20217;-64
2023/05/13 04:27:00;;;;;;;1.05;1.05;;;;;;;;;;5139964;27;20230;-64
2023/05/13 04:29:27;;;;;;;1.08;1.08;;;;;;;;;;5140862;27;20202;-64
2023/05/13 04:31:56;;;;;;;1.17;1.10;;;;;;;;;;5141102;27;20214;-63
2023/05/13 04:34:23;;;;;;;1.00;1.00;;;;;;;;;;5139998;27;20237;-64
2023/05/13 04:36:50;;;;;;;1.00;0.90;;;;;;;;;;5140405;27;20212;-64
2023/05/13 04:39:18;;;;;;;1.20;1.10;;;;;;;;;;5140482;27;20202;-64
2023/05/13 04:41:45;;;;;;;1.25;0.90;;;;;;;;;;5140255;27;20213;-65
2023/05/13 04:44:12;;;;;;;0.98;0.98;;;;;;;;;;5140123;27;20198;-64
2023/05/13 04:46:42;;;;;;;1.05;1.05;;;;;;;;;;5140325;27;20391;-64
2023/05/13 04:49:10;;;;;;;1.30;1.02;;;;;;;;;;5140268;27;20206;-64
2023/05/13 04:51:38;;;;;;;1.08;1.08;;;;;;;;;;5140476;27;20202;-64
2023/05/13 04:54:05;;;;;;;0.85;0.85;;;;;;;;;;5139504;27;20233;-64
2023/05/13 04:56:33;;;;;;;1.10;1.10;;;;;;;;;;5138619;27;20206;-64
2023/05/13 04:59:00;;;;;;;1.00;1.00;;;;;;;;;;5139129;27;20285;-64
2023/05/13 05:01:27;;;;;;;1.25;1.20;;;;;;;;;;5139664;27;20220;-64
2023/05/13 05:03:54;;;;;;;1.10;1.00;;;;;;;;;;5139898;27;20590;-64
2023/05/13 05:06:23;;;;;;;1.13;1.02;;;;;;;;;;5140056;27;20220;-64
2023/05/13 05:08:51;;;;;;;1.15;1.05;;;;;;;;;;5139357;27;20206;-64
2023/05/13 05:11:18;;;;;;;1.10;1.00;;;;;;;;;;5139510;27;20214;-64
2023/05/13 05:13:46;;;;;;;1.10;1.10;;;;;;;;;;5139914;27;20474;-65
2023/05/13 05:16:13;;;;;;;0.98;0.98;;;;;;;;;;5139364;27;20210;-64
2023/05/13 05:18:42;;;;;;;1.10;1.10;;;;;;;;;;5139226;27;20501;-64
2023/05/13 05:21:09;;;;;;;1.20;1.10;;;;;;;;;;5139311;27;20210;-64
2023/05/13 05:23:38;;;;;;;1.42;1.33;;;;;;;;;;5139498;27;20202;-64
2023/05/13 05:26:06;;;;;;;1.42;1.25;;;;;;;;;;5138972;27;20229;-64
2023/05/13 05:28:33;;;;;;;1.00;1.00;;;;;;;;;;5139393;27;20213;-64
2023/05/13 05:31:01;;;;;;;1.05;1.05;;;;;;;;;;5138985;27;20210;-65
2023/05/13 05:33:28;;;;;;;0.90;0.90;;;;;;;;;;5139391;27;20222;-65
2023/05/13 05:35:56;;;;;;;1.23;1.15;;;;;;;;;;5139365;27;20213;-65
2023/05/13 05:38:24;;;;;;;0.90;0.90;;;;;;;;;;5138924;27;20202;-64
2023/05/13 05:40:53;;;;;;;1.00;1.00;;;;;;;;;;5138779;27;20202;-65
2023/05/13 05:43:20;;;;;;;1.00;1.00;;;;;;;;;;5138915;27;20570;-64
2023/05/13 05:45:47;;;;;;;1.00;1.00;;;;;;;;;;5138684;27;20594;-64
2023/05/13 05:48:15;;;;;;;1.13;1.13;;;;;;;;;;5139070;27;20202;-64
2023/05/13 05:50:42;;;;;;;1.30;1.20;;;;;;;;;;5139063;27;20202;-65
2023/05/13 05:53:10;;;;;;;1.35;1.25;;;;;;;;;;5139009;27;20229;-64
2023/05/13 05:55:37;;;;;;;1.05;1.05;;;;;;;;;;5137784;27;20202;-64
2023/05/13 05:58:06;;;;;;;1.10;1.10;;;;;;;;;;5138739;27;20212;-64
2023/05/13 06:00:33;;;;;;;1.05;1.02;;;;;;;;;;5139106;27;20516;-64
2023/05/13 06:03:01;;;;;;;0.90;0.90;;;;;;;;;;5138253;27;20206;-64
2023/05/13 06:05:28;;;;;;;1.00;1.00;;;;;;;;;;5138338;27;20210;-64
2023/05/13 06:07:55;;;;;;;1.20;1.10;;;;;;;;;;5137915;27;20201;-64
2023/05/13 06:10:23;;;;;;;1.02;1.00;;;;;;;;;;5138180;27;20513;-64
2023/05/13 06:12:51;;;;;;;1.30;1.20;;;;;;;;;;5138161;27;20202;-64
2023/05/13 06:15:20;;;;;;;0.90;0.90;;;;;;;;;;5138283;27;20210;-65
2023/05/13 06:17:47;;;;;;;1.15;1.15;;;;;;;;;;5138451;27;20488;-64
2023/05/13 06:20:14;;;;;;;1.30;1.20;;;;;;;;;;5137618;27;20202;-64
2023/05/13 06:22:42;;;;;;;1.05;1.05;;;;;;;;;;5137230;27;20668;-64
2023/05/13 06:25:09;;;;;;;0.93;0.93;;;;;;;;;;5136088;27;20202;-63
2023/05/13 06:27:37;;;;;;;1.10;1.10;;;;;;;;;;5116259;28;20215;-64
2023/05/13 06:30:05;;;;;;;0.90;0.90;;;;;;;;;;5117407;28;20206;-64
2023/05/13 06:32:33;;;;;;;1.33;1.02;;;;;;;;;;5116700;28;20203;-64
2023/05/13 06:35:01;;;;;;;1.15;1.15;;;;;;;;;;5117236;28;20476;-64
2023/05/13 06:37:28;;;;;;;1.10;1.10;;;;;;;;;;5116944;28;20202;-66
2023/05/13 06:39:55;;;;;;;1.20;1.10;;;;;;;;;;5116747;28;20203;-63
2023/05/13 06:42:23;;;;;;;1.17;1.15;;;;;;;;;;5115959;28;20210;-64
2023/05/13 06:44:50;;;;;;;1.10;1.10;;;;;;;;;;5117015;28;20203;-64
2023/05/13 06:47:19;;;;;;;1.10;1.10;;;;;;;;;;5117225;28;20209;-64
2023/05/13 06:49:50;;;;;;;1.50;1.40;;;;;;;;;;5117136;28;20254;-64
2023/05/13 06:52:17;;;;;;;1.25;1.15;;;;;;;;;;5116369;28;20203;-64
2023/05/13 06:54:45;;;;;;;0.90;0.90;;;;;;;;;;5115345;28;20250;-64
2023/05/13 06:57:12;;;;;;;1.00;1.00;;;;;;;;;;5116161;28;20202;-64
2023/05/13 06:59:39;;;;;;;1.17;1.10;;;;;;;;;;5116675;28;20209;-64
2023/05/13 07:02:08;;;;;;;1.30;1.20;;;;;;;;;;5116500;28;20207;-64
2023/05/13 07:04:36;;;;;;;1.08;1.08;;;;;;;;;;5116030;28;20206;-64
2023/05/13 07:07:04;;;;;;;1.33;1.23;;;;;;;;;;5115430;28;20230;-64
2023/05/13 07:09:33;;;;;;;1.27;1.27;;;;;;;;;;5115499;28;20214;-65
2023/05/13 07:12:00;;;;;;;1.30;1.20;;;;;;;;;;5116592;28;20203;-64
2023/05/13 07:14:28;;;;;;;1.23;1.13;;;;;;;;;;5116376;28;20608;-66
2023/05/13 07:16:57;;;;;;;1.40;1.30;;;;;;;;;;5116455;28;20496;-64
2023/05/13 07:19:24;;;;;;;1.40;1.00;;;;;;;;;;5117170;28;20207;-65
2023/05/13 07:21:52;;;;;;;1.73;1.30;;;;;;;;;;5120056;28;20543;-65
2023/05/13 07:24:21;;;;;;;1.40;1.30;;;;;;;;;;5120212;28;20199;-65
2023/05/13 07:26:48;;;;;;;1.40;1.30;;;;;;;;;;5133386;27;20253;-64
2023/05/13 07:29:15;;;;;;;1.38;1.27;;;;;;;;;;5138951;27;20206;-64
2023/05/13 07:31:43;;;;;;;1.73;1.10;;;;;;;;;;5140087;27;20206;-65
2023/05/13 07:34:10;;;;;;;1.90;1.40;;;;;;;;;;5140379;27;20521;-65
2023/05/13 07:36:38;;;;;;;2.65;1.52;;;;;;;;;;5140695;27;20209;-64
2023/05/13 07:39:07;;;;;;;1.73;1.27;;;;;;;;;;5140669;27;20206;-64
2023/05/13 07:41:36;;;;;;;1.63;1.23;;;;;;;;;;5139995;27;20606;-65
2023/05/13 07:44:04;;;;;;;2.10;1.40;;;;;;;;;;5139046;27;20198;-64
2023/05/13 07:46:32;;;;;;;1.60;1.50;;;;;;;;;;5140181;27;20661;-65
2023/05/13 07:48:59;;;;;;;1.52;1.40;;;;;;;;;;5139298;27;20209;-65
2023/05/13 07:51:28;;;;;;;1.88;1.60;;;;;;;;;;5139876;27;20229;-65
2023/05/13 07:53:55;;;;;;;1.83;1.73;;;;;;;;;;5138876;27;20609;-65
2023/05/13 07:56:23;;;;;;;1.77;1.60;;;;;;;;;;5138579;27;20199;-65
2023/05/13 07:58:51;;;;;;;2.08;1.65;;;;;;;;;;5139854;27;20194;-65
2023/05/13 08:01:19;;;;;;;3.85;1.70;;;;;;;;;;5138716;27;20249;-64
2023/05/13 08:03:46;;;;;;;2.67;1.92;;;;;;;;;;5138645;27;20209;-65
2023/05/13 08:06:14;;;;;;;1.60;1.50;;;;;;;;;;5139210;27;20201;-65
2023/05/13 08:08:41;;;;;;;1.80;1.70;;;;;;;;;;5138892;27;20210;-66
2023/05/13 08:11:08;;;;;;;1.88;1.70;;;;;;;;;;5138716;27;20213;-65
2023/05/13 08:13:37;;;;;;;1.65;1.55;;;;;;;;;;5138334;27;20261;-64
2023/05/13 08:16:06;;;;;;;2.15;1.60;;;;;;;;;;5138268;27;20234;-64
2023/05/13 08:18:34;;;;;;;2.17;1.85;;;;;;;;;;5139013;27;20246;-65
2023/05/13 08:21:02;;;;;;;1.83;1.50;;;;;;;;;;5138053;27;20202;-65
2023/05/13 08:23:29;;;;;;;2.90;1.60;;;;;;;;;;5137833;27;20202;-65
2023/05/13 08:25:57;;;;;;;2.13;1.80;;;;;;;;;;5137966;27;20249;-65
2023/05/13 08:28:26;;;;;;;1.73;1.60;;;;;;;;;;5139021;27;20297;-65
2023/05/13 08:30:53;;;;;;;2.38;1.63;;;;;;;;;;5138266;27;20563;-65
2023/05/13 08:33:22;;;;;;;2.88;1.67;;;;;;;;;;5137950;27;20195;-65
2023/05/13 08:35:49;;;;;;;1.88;1.70;;;;;;;;;;5136968;27;20198;-64
2023/05/13 08:38:16;;;;;;;1.75;1.65;;;;;;;;;;5137825;27;20213;-64
2023/05/13 08:40:44;;;;;;;1.70;1.60;;;;;;;;;;5137520;27;20212;-64
2023/05/13 08:43:12;;;;;;;1.95;1.85;;;;;;;;;;5137956;27;20571;-64
2023/05/13 08:45:41;;;;;;;2.20;1.60;;;;;;;;;;5134008;27;20194;-64
2023/05/13 08:48:09;;;;;;;1.70;1.60;;;;;;;;;;5138924;27;20203;-64
2023/05/13 08:50:38;;;;;;;1.77;1.67;;;;;;;;;;5137330;27;20225;-64
2023/05/13 08:53:07;;;;;;;1.60;1.50;;;;;;;;;;5137067;27;20241;-65
2023/05/13 08:55:34;;;;;;;1.77;1.67;;;;;;;;;;5138137;27;20229;-64
2023/05/13 08:58:01;;;;;;;1.88;1.77;;;;;;;;;;5137726;27;20229;-65
2023/05/13 09:00:29;;;;;;;1.80;1.70;;;;;;;;;;5137239;27;20605;-65
2023/05/13 09:02:56;;;;;;;1.90;1.77;;;;;;;;;;5138231;27;20206;-65
2023/05/13 09:05:24;;;;;;;1.90;1.80;;;;;;;;;;5134786;27;20366;-65
2023/05/13 09:07:54;;;;;;;2.03;1.75;;;;;;;;;;5137447;27;20202;-64
2023/05/13 09:10:21;;;;;;;1.83;1.73;;;;;;;;;;5136476;27;20206;-65
2023/05/13 09:12:50;;;;;;;1.80;1.70;;;;;;;;;;5136869;27;20202;-65
2023/05/13 09:15:18;;;;;;;1.88;1.77;;;;;;;;;;5135493;27;20250;-64
2023/05/13 09:17:46;;;;;;;1.85;1.75;;;;;;;;;;5135770;27;20579;-64
2023/05/13 09:20:15;;;;;;;1.75;1.65;;;;;;;;;;5136187;27;20457;-66
2023/05/13 09:22:43;;;;;;;1.73;1.63;;;;;;;;;;5135936;27;20602;-64
2023/05/13 09:25:14;;;;;;;1.70;1.60;;;;;;;;;;5136062;27;20652;-64
2023/05/13 09:27:42;;;;;;;1.88;1.77;;;;;;;;;;5136409;27;20214;-65
2023/05/13 09:30:10;;;;;;;1.75;1.65;;;;;;;;;;5137773;27;20220;-64
2023/05/13 09:32:37;;;;;;;1.83;1.73;;;;;;;;;;5136352;27;20477;-64
2023/05/13 09:35:15;;;;;;;1.67;1.58;;;;;;;;;;5136605;27;20233;-65
2023/05/13 09:37:42;;;;;;;1.92;1.80;;;;;;;;;;5136843;27;20341;-64
2023/05/13 09:40:12;;;;;;;1.98;1.77;;;;;;;;;;5136077;27;20198;-65
2023/05/13 09:42:43;;;;;;;1.70;1.60;;;;;;;;;;5136480;27;20213;-66
2023/05/13 09:45:10;;;;;;;2.15;1.95;;;;;;;;;;5136051;27;20198;-64
2023/05/13 09:47:38;;;;;;;1.90;1.80;;;;;;;;;;5136198;27;20209;-64
2023/05/13 09:50:06;;;;;;;2.00;1.90;;;;;;;;;;5135873;27;20224;-64
2023/05/13 09:52:35;;;;;;;1.80;1.70;;;;;;;;;;5135966;27;20264;-64
2023/05/13 09:55:04;;;;;;;1.90;1.80;;;;;;;;;;5135549;27;20233;-65
2023/05/13 09:57:31;;;;;;;2.55;1.85;;;;;;;;;;5135511;27;20263;-64
2023/05/13 10:00:00;;;;;;;1.90;1.80;;;;;;;;;;5135148;27;20229;-64
2023/05/13 10:02:28;;;;;;;2.08;1.90;;;;;;;;;;5134061;27;20198;-63
2023/05/13 10:04:57;;;;;;;1.90;1.80;;;;;;;;;;5134562;27;20209;-64
2023/05/13 10:07:25;;;;;;;2.08;1.90;;;;;;;;;;5136833;27;20267;-64
2023/05/13 10:09:54;;;;;;;1.88;1.77;;;;;;;;;;5135235;27;20202;-64
2023/05/13 10:12:22;;;;;;;2.13;2.03;;;;;;;;;;5134674;27;20241;-65
2023/05/13 10:14:51;;;;;;;1.90;1.80;;;;;;;;;;5135752;27;20275;-65
2023/05/13 10:17:21;;;;;;;2.03;1.83;;;;;;;;;;5136283;27;20563;-64
2023/05/13 10:19:49;;;;;;;3.95;1.90;;;;;;;;;;5135849;27;20233;-64
2023/05/13 10:22:18;;;;;;;1.98;1.88;;;;;;;;;;5136179;27;20266;-64
2023/05/13 10:24:45;;;;;;;2.25;2.05;;;;;;;;;;5134149;27;20205;-64
2023/05/13 10:27:12;;;;;;;1.73;1.63;;;;;;;;;;5134566;27;20248;-64
2023/05/13 10:29:40;;;;;;;1.92;1.83;;;;;;;;;;5134805;28;20316;-65
2023/05/13 10:32:09;;;;;;;2.25;2.10;;;;;;;;;;5135411;27;20201;-65
2023/05/13 10:34:38;;;;;;;1.90;1.80;;;;;;;;;;5135181;28;20306;-64
2023/05/13 10:37:22;;;;;;;1.90;1.80;;;;;;;;;;5135669;28;20206;-64
2023/05/13 10:40:02;;;;;;;2.10;1.90;;;;;;;;;;5135091;28;20416;-64
2023/05/13 10:42:48;;;;;;;2.17;1.88;;;;;;;;;;5134804;28;20292;-64
2023/05/13 10:45:17;;;;;;;2.30;2.10;;;;;;;;;;5135125;28;20216;-64
2023/05/13 10:47:44;;;;;;;2.45;2.25;;;;;;;;;;5134982;28;20202;-65
2023/05/13 10:50:24;;;;;;;2.13;1.75;;;;;;;;;;5133715;28;20203;-64
2023/05/13 10:52:51;;;;;;;2.05;1.73;;;;;;;;;;5133780;28;20209;-64
2023/05/13 10:55:19;;;;;;;2.13;1.92;;;;;;;;;;5139011;27;20253;-64
2023/05/13 10:58:08;;;;;;;1.95;1.85;;;;;;;;;;5139267;27;20624;-64
2023/05/13 11:00:36;;;;;;;1.92;1.83;;;;;;;;;;5139722;27;20231;-65
2023/05/13 11:03:10;;;;;;;3.13;1.90;;;;;;;;;;5138597;27;20201;-63
2023/05/13 11:05:40;;;;;;;1.77;1.67;;;;;;;;;;5139010;27;20209;-64
2023/05/13 11:08:08;;;;;;;2.17;1.98;;;;;;;;;;5138651;27;20213;-64
2023/05/13 11:10:35;;;;;;;1.80;1.70;;;;;;;;;;5138363;27;20209;-64
2023/05/13 11:13:09;;;;;;;1.80;1.70;;;;;;;;;;5138523;27;20445;-64
2023/05/13 11:15:46;;;;;;;2.45;1.77;;;;;;;;;;5137454;27;20245;-65
2023/05/13 11:18:14;;;;;;;1.90;1.70;;;;;;;;;;5138250;27;20238;-65
2023/05/13 11:20:45;;;;;;;1.70;1.60;;;;;;;;;;5138579;27;20213;-64
2023/05/13 11:23:17;;;;;;;1.73;1.63;;;;;;;;;;5137974;27;20203;-64
2023/05/13 11:25:44;;;;;;;1.95;1.85;;;;;;;;;;5137792;27;20618;-65
2023/05/13 11:28:15;;;;;;;1.70;1.60;;;;;;;;;;5137633;27;20209;-64
2023/05/13 11:30:53;;;;;;;1.80;1.70;;;;;;;;;;5137278;27;20206;-64
2023/05/13 11:33:21;;;;;;;1.80;1.70;;;;;;;;;;5137303;27;20570;-64
2023/05/13 11:35:56;;;;;;;2.28;1.70;;;;;;;;;;5136501;27;20218;-64
2023/05/13 11:38:24;;;;;;;1.80;1.70;;;;;;;;;;5137792;27;20267;-64
2023/05/13 11:40:52;;;;;;;2.17;1.80;;;;;;;;;;5139739;27;20255;-64
2023/05/13 11:43:23;;;;;;;1.75;1.65;;;;;;;;;;5137973;27;20270;-64
2023/05/13 11:45:52;;;;;;;1.95;1.55;;;;;;;;;;5136770;27;20202;-64
2023/05/13 11:48:20;;;;;;;1.77;1.67;;;;;;;;;;5137300;27;20574;-66
2023/05/13 11:50:47;;;;;;;1.55;1.45;;;;;;;;;;5138230;27;20202;-64
2023/05/13 11:53:21;;;;;;;1.75;1.65;;;;;;;;;;5135897;27;20202;-64
2023/05/13 11:55:48;;;;;;;1.80;1.70;;;;;;;;;;5138154;27;20248;-64
2023/05/13 11:58:17;;;;;;;1.70;1.60;;;;;;;;;;5137844;27;20217;-64
2023/05/13 12:00:44;;;;;;;1.77;1.58;;;;;;;;;;5137341;27;20194;-64
2023/05/13 12:03:14;;;;;;;1.70;1.60;;;;;;;;;;5137245;27;20495;-64
2023/05/13 12:05:43;;;;;;;1.67;1.58;;;;;;;;;;5136878;27;20222;-64
2023/05/13 12:08:10;;;;;;;1.77;1.67;;;;;;;;;;5138462;27;20369;-64
2023/05/13 12:10:44;;;;;;;2.40;1.70;;;;;;;;;;5137726;27;20296;-64
2023/05/13 12:13:12;;;;;;;1.70;1.60;;;;;;;;;;5137108;27;20232;-63
2023/05/13 12:15:39;;;;;;;1.67;1.58;;;;;;;;;;5135859;27;20222;-64
2023/05/13 12:18:07;;;;;;;1.65;1.55;;;;;;;;;;5136574;27;20203;-64
2023/05/13 12:20:35;;;;;;;1.55;1.45;;;;;;;;;;5136854;27;20202;-64
2023/05/13 12:23:03;;;;;;;1.77;1.67;;;;;;;;;;5135722;27;20206;-65
2023/05/13 12:25:49;;;;;;;1.73;1.63;;;;;;;;;;5136930;27;20234;-64
2023/05/13 12:28:19;;;;;;;1.70;1.50;;;;;;;;;;5135871;27;20643;-65
2023/05/13 12:30:51;;;;;;;1.63;1.52;;;;;;;;;;5135774;27;20466;-64
2023/05/13 12:33:19;;;;;;;1.70;1.60;;;;;;;;;;5135770;27;20263;-64
2023/05/13 12:35:48;;;;;;;1.65;1.55;;;;;;;;;;5135431;27;20502;-64
2023/05/13 12:38:17;;;;;;;1.60;1.50;;;;;;;;;;5136071;27;20213;-65
2023/05/13 12:40:45;;;;;;;1.70;1.60;;;;;;;;;;5135554;27;20465;-64
2023/05/13 12:43:13;;;;;;;1.60;1.50;;;;;;;;;;5135177;27;20219;-64
2023/05/13 12:45:42;;;;;;;1.60;1.50;;;;;;;;;;5136594;27;20405;-64
2023/05/13 12:48:10;;;;;;;1.77;1.60;;;;;;;;;;5137000;27;20213;-64
2023/05/13 12:50:37;;;;;;;1.70;1.60;;;;;;;;;;5134417;27;20234;-64
2023/05/13 12:53:05;;;;;;;1.50;1.40;;;;;;;;;;5136367;27;20237;-64
2023/05/13 12:55:35;;;;;;;1.90;1.80;;;;;;;;;;5134910;27;20226;-65
2023/05/13 12:58:04;;;;;;;1.70;1.60;;;;;;;;;;5136315;27;20209;-65
2023/05/13 13:00:32;;;;;;;1.70;1.60;;;;;;;;;;5135126;27;20229;-65
2023/05/13 13:03:00;;;;;;;1.60;1.50;;;;;;;;;;5134877;27;20214;-64
2023/05/13 13:05:28;;;;;;;1.67;1.58;;;;;;;;;;5133400;27;20194;-64
2023/05/13 13:07:55;;;;;;;1.48;1.38;;;;;;;;;;5135274;27;20499;-64
2023/05/13 13:10:22;;;;;;;1.67;1.58;;;;;;;;;;5134881;27;20222;-64
2023/05/13 13:12:51;;;;;;;1.50;1.40;;;;;;;;;;5134250;27;20493;-64
2023/05/13 13:15:18;;;;;;;1.60;1.50;;;;;;;;;;5134343;27;20255;-64
2023/05/13 13:17:45;;;;;;;1.70;1.60;;;;;;;;;;5135148;27;20489;-64
2023/05/13 13:20:14;;;;;;;1.70;1.60;;;;;;;;;;5135823;27;20194;-64
2023/05/13 13:22:42;;;;;;;1.60;1.50;;;;;;;;;;5135464;27;20194;-64
2023/05/13 13:25:09;;;;;;;1.70;1.60;;;;;;;;;;5135733;27;20615;-64
2023/05/13 13:27:36;;;;;;;1.73;1.63;;;;;;;;;;5134764;27;20222;-65
2023/05/13 13:30:04;;;;;;;1.60;1.50;;;;;;;;;;5136328;27;20531;-64
2023/05/13 13:32:34;;;;;;;1.58;1.48;;;;;;;;;;5134337;27;20225;-65
2023/05/13 13:35:02;;;;;;;1.48;1.38;;;;;;;;;;5134992;27;20198;-64
2023/05/13 13:37:30;;;;;;;1.50;1.40;;;;;;;;;;5134728;27;20269;-64
2023/05/13 13:39:58;;;;;;;1.60;1.50;;;;;;;;;;5131885;27;20213;-65
2023/05/13 13:42:25;;;;;;;1.50;1.40;;;;;;;;;;5133315;27;20207;-65
2023/05/13 13:44:53;;;;;;;1.60;1.50;;;;;;;;;;5135312;27;20259;-67
2023/05/13 13:47:20;;;;;;;1.65;1.55;;;;;;;;;;5135555;27;20202;-64
2023/05/13 13:49:48;;;;;;;1.40;1.30;;;;;;;;;;5133956;27;20194;-64
2023/05/13 13:52:16;;;;;;;1.45;1.38;;;;;;;;;;5134358;27;20202;-64
2023/05/13 13:54:46;;;;;;;1.67;1.58;;;;;;;;;;5134201;27;20203;-64
2023/05/13 13:57:13;;;;;;;1.52;1.42;;;;;;;;;;5133683;27;20656;-64
2023/05/13 13:59:40;;;;;;;1.60;1.50;;;;;;;;;;5132122;27;20206;-64
2023/05/13 14:02:08;;;;;;;1.50;1.40;;;;;;;;;;5132629;27;20248;-64
2023/05/13 14:04:35;;;;;;;1.67;1.58;;;;;;;;;;5133088;27;20297;-64
2023/05/13 14:07:02;;;;;;;1.55;1.45;;;;;;;;;;5134358;27;20209;-64
2023/05/13 14:09:31;;;;;;;1.50;1.40;;;;;;;;;;5133228;27;20205;-64
2023/05/13 14:12:00;;;;;;;1.55;1.45;;;;;;;;;;5132902;27;20198;-64
2023/05/13 14:14:28;;;;;;;1.50;1.40;;;;;;;;;;5133523;27;20194;-66
2023/05/13 14:16:56;;;;;;;1.63;1.52;;;;;;;;;;5132417;27;20215;-64
2023/05/13 14:19:23;;;;;;;1.52;1.42;;;;;;;;;;5133873;27;20213;-64
2023/05/13 14:21:50;;;;;;;1.50;1.40;;;;;;;;;;5132715;27;20201;-64
2023/05/13 14:24:18;;;;;;;1.50;1.40;;;;;;;;;;5132603;27;20206;-64
2023/05/13 14:26:46;;;;;;;1.30;1.20;;;;;;;;;;5132485;27;20249;-65
2023/05/13 14:29:14;;;;;;;1.52;1.42;;;;;;;;;;5131932;27;20589;-64
2023/05/13 14:31:42;;;;;;;1.70;1.50;;;;;;;;;;5132264;27;20479;-64
2023/05/13 14:34:09;;;;;;;1.45;1.35;;;;;;;;;;5133911;28;20625;-65
2023/05/13 14:36:36;;;;;;;1.80;1.70;;;;;;;;;;5132074;28;20233;-66
2023/05/13 14:39:04;;;;;;;1.65;1.55;;;;;;;;;;5132023;28;20198;-65
2023/05/13 14:41:32;;;;;;;1.55;1.45;;;;;;;;;;5130468;28;20271;-64
2023/05/13 14:44:00;;;;;;;1.65;1.55;;;;;;;;;;5131458;28;20206;-65
2023/05/13 14:46:29;;;;;;;1.30;1.20;;;;;;;;;;5131112;28;20198;-64
2023/05/13 14:48:56;;;;;;;1.30;1.20;;;;;;;;;;5131703;28;20198;-64